createdAt,value
2023-02-19T00:40:27.796Z,468.00
2023-02-19T00:41:27.849Z,466.00
2023-02-19T02:07:33.185Z,461.00
2023-02-19T02:09:33.323Z,457.00
2023-02-19T03:12:37.841Z,458.00
2023-02-19T03:13:37.927Z,457.00
2023-02-19T03:14:37.991Z,455.00
2023-02-19T03:15:38.070Z,455.00
2023-02-19T03:16:38.175Z,453.00
2023-02-19T03:17:38.218Z,454.00
2023-02-19T03:18:38.298Z,452.00
2023-02-19T03:19:38.357Z,450.00
2023-02-19T03:20:38.430Z,450.00
2023-02-19T03:21:38.519Z,452.00
2023-02-19T03:22:38.596Z,453.00
2023-02-19T03:23:38.733Z,453.00
2023-02-19T03:24:39.578Z,450.00
2023-02-19T03:25:38.799Z,450.00
2023-02-19T03:26:38.878Z,448.00
2023-02-19T03:27:38.949Z,449.00
2023-02-19T03:28:39.021Z,448.00
2023-02-19T03:29:39.091Z,450.00
2023-02-19T05:24:47.872Z,448.00
2023-02-19T05:25:47.951Z,450.00
2023-02-19T05:26:48.016Z,452.00
2023-02-19T05:27:48.094Z,453.00
2023-02-19T05:28:48.158Z,452.00
2023-02-19T05:29:48.245Z,452.00
2023-02-19T05:30:48.342Z,450.00
2023-02-19T05:31:48.494Z,450.00
2023-02-19T05:32:48.490Z,450.00
2023-02-19T05:33:48.546Z,452.00
2023-02-19T05:34:48.616Z,451.00
2023-02-19T05:35:49.623Z,450.00
2023-02-19T05:36:48.765Z,450.00
2023-02-19T05:37:48.841Z,450.00
2023-02-19T05:38:49.136Z,451.00
2023-02-19T05:39:48.992Z,451.00
2023-02-19T05:40:49.069Z,452.00
2023-02-19T05:41:49.150Z,451.00
2023-02-19T05:42:49.217Z,452.00
2023-02-19T05:43:49.304Z,453.00
2023-02-19T05:44:49.382Z,449.00
2023-02-19T05:45:49.449Z,447.00
2023-02-19T05:46:49.589Z,443.00
2023-02-19T05:47:49.605Z,442.00
2023-02-19T05:48:49.684Z,442.00
2023-02-19T05:49:49.781Z,441.00
2023-02-19T05:50:49.826Z,441.00
2023-02-19T05:51:49.894Z,441.00
2023-02-19T05:52:49.974Z,443.00
2023-02-19T05:53:50.063Z,442.00
2023-02-19T05:54:50.137Z,441.00
2023-02-19T05:55:50.207Z,439.00
2023-02-19T05:56:50.301Z,439.00
2023-02-19T05:57:50.369Z,438.00
2023-02-19T05:58:50.450Z,438.00
2023-02-19T05:59:50.538Z,435.00
2023-02-19T06:00:50.603Z,435.00
2023-02-19T06:01:50.731Z,433.00
2023-02-19T06:03:50.860Z,435.00
2023-02-19T06:04:50.887Z,438.00
2023-02-19T07:42:57.832Z,443.00
2023-02-19T07:43:57.910Z,443.00
2023-02-19T07:45:00.562Z,444.00
2023-02-19T07:45:57.996Z,445.00
2023-02-19T07:46:58.085Z,443.00
2023-02-19T07:47:58.016Z,442.00
2023-02-19T07:48:58.029Z,441.00
2023-02-19T07:49:58.063Z,442.00
2023-02-19T07:50:58.068Z,442.00
2023-02-19T07:51:58.089Z,443.00
2023-02-19T07:52:58.668Z,444.00
2023-02-19T07:53:58.138Z,445.00
2023-02-19T07:54:58.155Z,445.00
2023-02-19T07:55:58.178Z,445.00
2023-02-19T07:56:58.229Z,441.00
2023-02-19T07:57:58.215Z,441.00
2023-02-19T07:58:58.234Z,443.00
2023-02-19T07:59:58.254Z,444.00
2023-02-19T08:00:58.283Z,443.00
2023-02-19T08:01:58.287Z,443.00
2023-02-19T08:02:58.391Z,444.00
2023-02-19T08:03:58.336Z,442.00
2023-02-19T08:04:58.345Z,440.00
2023-02-19T08:05:58.365Z,442.00
2023-02-19T08:06:58.370Z,440.00
2023-02-19T08:07:58.376Z,439.00
2023-02-19T08:08:58.400Z,440.00
2023-02-19T08:09:58.402Z,439.00
2023-02-19T08:10:58.414Z,440.00
2023-02-19T08:11:58.415Z,441.00
2023-02-19T08:12:58.422Z,441.00
2023-02-19T08:13:58.446Z,442.00
2023-02-19T08:14:58.445Z,445.00
2023-02-19T08:16:10.950Z,446.00
2023-02-19T08:16:59.520Z,449.00
2023-02-19T08:17:58.481Z,449.00
2023-02-19T08:18:58.484Z,449.00
2023-02-19T08:19:58.494Z,448.00
2023-02-19T08:20:58.503Z,449.00
2023-02-19T08:21:58.512Z,449.00
2023-02-19T08:22:58.516Z,449.00
2023-02-19T08:23:58.520Z,448.00
2023-02-19T08:24:58.540Z,448.00
2023-02-19T08:25:58.541Z,448.00
2023-02-19T08:26:58.551Z,446.00
2023-02-19T08:27:58.565Z,446.00
2023-02-19T08:28:58.591Z,444.00
2023-02-19T08:29:58.638Z,446.00
2023-02-19T08:30:58.697Z,448.00
2023-02-19T08:31:58.803Z,448.00
2023-02-19T08:33:00.683Z,450.00
2023-02-19T08:33:58.810Z,450.00
2023-02-19T08:34:58.831Z,452.00
2023-02-19T08:35:58.838Z,452.00
2023-02-19T08:36:58.844Z,452.00
2023-02-19T08:37:58.865Z,451.00
2023-02-19T08:38:58.864Z,450.00
2023-02-19T08:39:58.888Z,449.00
2023-02-19T08:49:58.963Z,452.00
2023-02-19T09:01:59.060Z,453.00
2023-02-19T09:02:59.061Z,454.00
2023-02-19T09:03:59.112Z,456.00
2023-02-19T09:04:59.070Z,455.00
2023-02-19T09:05:59.110Z,455.00
2023-02-19T09:06:59.134Z,455.00
2023-02-19T09:07:59.100Z,452.00
2023-02-19T09:08:59.100Z,448.00
2023-02-19T09:09:59.106Z,448.00
2023-02-19T09:10:59.129Z,447.00
2023-02-19T09:11:59.126Z,447.00
2023-02-19T09:12:59.136Z,448.00
2023-02-19T09:13:59.690Z,448.00
2023-02-19T09:14:59.142Z,448.00
2023-02-19T09:15:59.221Z,448.00
2023-02-19T09:16:59.152Z,446.00
2023-02-19T09:17:59.167Z,445.00
2023-02-19T09:18:59.187Z,445.00
2023-02-19T09:19:59.187Z,445.00
2023-02-19T09:20:59.183Z,446.00
2023-02-19T09:21:59.186Z,447.00
2023-02-19T09:22:59.194Z,446.00
2023-02-19T09:23:59.209Z,444.00
2023-02-19T09:24:59.197Z,443.00
2023-02-19T09:25:59.197Z,443.00
2023-02-19T09:26:59.240Z,442.00
2023-02-19T09:27:59.308Z,441.00
2023-02-19T09:28:59.440Z,440.00
2023-02-19T09:30:00.250Z,440.00
2023-02-19T09:30:59.537Z,440.00
2023-02-19T09:31:59.624Z,439.00
2023-02-19T09:32:59.651Z,440.00
2023-02-19T09:33:59.726Z,439.00
2023-02-19T09:34:59.786Z,438.00
2023-02-19T09:35:59.863Z,440.00
2023-02-19T09:36:59.932Z,439.00
2023-02-19T09:38:00.726Z,436.00
2023-02-19T09:39:00.052Z,437.00
2023-02-19T09:40:00.136Z,437.00
2023-02-19T09:41:00.185Z,438.00
2023-02-19T09:42:00.261Z,439.00
2023-02-19T09:43:01.801Z,436.00
2023-02-19T09:44:01.205Z,435.00
2023-02-19T09:45:00.462Z,435.00
2023-02-19T09:46:00.544Z,435.00
2023-02-19T09:47:00.581Z,435.00
2023-02-19T09:48:00.629Z,436.00
2023-02-19T09:49:00.689Z,440.00
2023-02-19T09:50:00.809Z,440.00
2023-02-19T09:51:00.804Z,443.00
2023-02-19T09:52:00.872Z,444.00
2023-02-19T09:53:00.922Z,444.00
2023-02-19T09:54:00.973Z,442.00
2023-02-19T09:55:01.033Z,441.00
2023-02-19T09:56:01.084Z,439.00
2023-02-19T09:57:01.138Z,437.00
2023-02-19T09:58:01.180Z,436.00
2023-02-19T09:59:01.231Z,438.00
2023-02-19T10:00:01.285Z,437.00
2023-02-19T10:01:01.334Z,441.00
2023-02-19T10:02:01.373Z,441.00
2023-02-19T10:03:01.420Z,440.00
2023-02-19T10:04:01.468Z,439.00
2023-02-19T10:05:01.553Z,439.00
2023-02-19T10:06:01.554Z,437.00
2023-02-19T10:07:01.607Z,438.00
2023-02-19T10:08:01.644Z,439.00
2023-02-19T10:09:01.678Z,440.00
2023-02-19T10:10:01.722Z,440.00
2023-02-19T10:11:01.776Z,439.00
2023-02-19T10:12:01.809Z,441.00
2023-02-19T10:14:01.907Z,441.00
2023-02-19T10:15:01.996Z,441.00
2023-02-19T10:16:02.022Z,442.00
2023-02-19T10:17:02.034Z,444.00
2023-02-19T10:18:02.081Z,443.00
2023-02-19T10:19:02.113Z,441.00
2023-02-19T10:20:02.142Z,440.00
2023-02-19T10:21:02.188Z,441.00
2023-02-19T10:22:02.223Z,440.00
2023-02-19T10:23:02.241Z,440.00
2023-02-19T10:24:02.357Z,439.00
2023-02-19T10:25:02.311Z,441.00
2023-02-19T10:26:02.347Z,441.00
2023-02-19T10:27:02.387Z,443.00
2023-02-19T10:28:02.405Z,446.00
2023-02-19T10:29:02.420Z,445.00
2023-02-19T14:59:07.820Z,451.00
2023-02-19T15:25:07.805Z,454.00
2023-02-19T15:26:07.851Z,453.00
2023-02-19T15:27:07.907Z,455.00
2023-02-19T15:28:07.966Z,456.00
2023-02-19T15:29:08.026Z,455.00
2023-02-19T15:30:08.832Z,455.00
2023-02-19T15:32:08.308Z,459.00
2023-02-19T15:33:08.246Z,457.00
2023-02-19T15:34:08.297Z,455.00
2023-02-19T15:35:08.359Z,457.00
2023-02-19T15:36:08.400Z,457.00
2023-02-19T15:37:08.442Z,458.00
2023-02-19T15:38:08.450Z,460.00
2023-02-19T15:39:08.462Z,460.00
2023-02-19T15:40:08.467Z,459.00
2023-02-19T15:41:08.463Z,460.00
2023-02-19T15:42:08.466Z,458.00
2023-02-19T15:43:08.470Z,458.00
2023-02-19T15:44:08.469Z,457.00
2023-02-19T15:45:08.461Z,458.00
2023-02-19T15:46:08.518Z,459.00
2023-02-19T15:47:08.493Z,460.00
2023-02-19T15:48:08.499Z,462.00
2023-02-19T15:49:08.566Z,462.00
2023-02-19T15:50:08.498Z,462.00
2023-02-19T15:51:08.577Z,460.00
2023-02-19T15:52:08.502Z,460.00
2023-02-19T15:53:08.502Z,460.00
2023-02-19T15:54:08.520Z,459.00
2023-02-19T15:55:08.537Z,458.00
2023-02-19T15:56:08.572Z,456.00
2023-02-19T15:57:08.554Z,455.00
2023-02-19T15:58:08.575Z,457.00
2023-02-19T15:59:08.578Z,457.00
2023-02-19T16:00:08.597Z,459.00
2023-02-19T16:01:08.591Z,460.00
2023-02-19T16:02:08.571Z,461.00
2023-02-19T16:03:08.706Z,461.00
2023-02-19T16:04:08.710Z,459.00
2023-02-19T16:09:08.611Z,456.00
2023-02-19T16:10:08.660Z,457.00
2023-02-19T16:11:08.823Z,454.00
2023-02-19T16:12:08.666Z,453.00
2023-02-19T16:13:08.734Z,454.00
2023-02-19T16:14:08.663Z,455.00
2023-02-19T16:15:08.669Z,456.00
2023-02-19T16:16:08.770Z,454.00
2023-02-19T16:17:08.700Z,455.00
2023-02-19T16:18:08.744Z,453.00
2023-02-19T16:19:08.714Z,454.00
2023-02-19T16:20:08.729Z,454.00
2023-02-19T16:21:08.949Z,456.00
2023-02-19T16:22:08.763Z,460.00
2023-02-19T16:23:08.784Z,460.00
2023-02-19T16:24:09.768Z,460.00
2023-02-19T16:25:08.822Z,459.00
2023-02-19T16:26:08.846Z,459.00
2023-02-19T16:27:08.856Z,460.00
2023-02-19T16:28:08.896Z,460.00
2023-02-19T16:29:08.901Z,460.00
2023-02-19T16:30:08.973Z,459.00
2023-02-19T16:31:08.985Z,458.00
2023-02-19T16:32:09.014Z,457.00
2023-02-19T16:33:09.000Z,458.00
2023-02-19T16:34:09.017Z,457.00
2023-02-19T16:35:09.049Z,457.00
2023-02-19T16:36:09.072Z,457.00
2023-02-19T16:37:09.094Z,457.00
2023-02-19T16:38:09.116Z,457.00
2023-02-19T16:39:09.178Z,457.00
2023-02-19T16:40:09.199Z,456.00
2023-02-19T16:41:09.495Z,455.00
2023-02-19T16:42:09.218Z,457.00
2023-02-19T16:43:09.249Z,457.00
2023-02-19T16:44:09.295Z,455.00
2023-02-19T16:45:09.300Z,456.00
2023-02-19T16:46:09.385Z,456.00
2023-02-19T16:47:09.364Z,456.00
2023-02-19T16:48:09.399Z,456.00
2023-02-19T16:49:09.413Z,454.00
2023-02-19T16:50:09.449Z,453.00
2023-02-19T16:51:09.732Z,453.00
2023-02-19T16:52:09.528Z,455.00
2023-02-19T16:53:09.571Z,454.00
2023-02-19T16:54:09.610Z,457.00
2023-02-19T16:55:09.647Z,457.00
2023-02-19T16:56:09.744Z,458.00
2023-02-19T16:57:09.717Z,457.00
2023-02-19T16:58:09.754Z,457.00
2023-02-19T16:59:09.790Z,456.00
2023-02-19T17:00:09.840Z,456.00
2023-02-19T17:01:10.081Z,455.00
2023-02-19T17:02:09.980Z,455.00
2023-02-19T17:03:09.965Z,454.00
2023-02-19T17:04:10.081Z,454.00
2023-02-19T17:05:10.046Z,454.00
2023-02-19T17:06:10.088Z,455.00
2023-02-19T17:07:10.142Z,451.00
2023-02-19T17:08:10.179Z,452.00
2023-02-19T17:09:10.230Z,455.00
2023-02-19T17:10:10.284Z,456.00
2023-02-19T17:11:10.783Z,456.00
2023-02-19T17:12:10.360Z,456.00
2023-02-19T17:13:10.405Z,458.00
2023-02-19T17:14:10.441Z,457.00
2023-02-19T17:15:10.497Z,459.00
2023-02-19T17:16:10.558Z,460.00
2023-02-19T17:17:10.584Z,459.00
2023-02-19T17:18:10.645Z,459.00
2023-02-19T17:19:10.680Z,457.00
2023-02-19T17:20:10.749Z,456.00
2023-02-19T17:21:11.155Z,456.00
2023-02-19T17:22:10.844Z,457.00
2023-02-19T17:23:10.899Z,456.00
2023-02-19T17:24:10.944Z,454.00
2023-02-19T17:25:11.015Z,454.00
2023-02-19T17:26:11.055Z,455.00
2023-02-19T17:27:11.112Z,454.00
2023-02-19T17:28:11.167Z,452.00
2023-02-19T17:29:11.224Z,453.00
2023-02-19T17:30:11.309Z,453.00
2023-02-19T17:31:11.714Z,453.00
2023-02-19T17:32:11.511Z,453.00
2023-02-19T17:33:11.442Z,454.00
2023-02-19T17:34:11.493Z,454.00
2023-02-19T17:35:11.551Z,457.00
2023-02-19T17:36:11.635Z,456.00
2023-02-19T17:37:11.672Z,457.00
2023-02-19T17:38:12.422Z,458.00
2023-02-19T17:39:11.855Z,460.00
2023-02-19T17:40:12.818Z,460.00
2023-02-19T17:41:12.126Z,458.00
2023-02-19T17:42:11.958Z,457.00
2023-02-19T17:43:12.032Z,458.00
2023-02-19T17:44:12.093Z,459.00
2023-02-19T17:45:12.138Z,461.00
2023-02-19T17:46:12.230Z,461.00
2023-02-19T17:47:12.257Z,459.00
2023-02-19T17:48:12.322Z,458.00
2023-02-19T17:49:12.382Z,458.00
2023-02-19T17:50:12.447Z,458.00
2023-02-19T20:27:18.501Z,463.00
2023-02-19T20:41:17.939Z,456.00
2023-02-19T20:49:17.816Z,460.00
2023-02-19T20:50:17.800Z,465.00
2023-02-19T20:51:17.830Z,466.00
2023-02-19T20:52:17.847Z,465.00
2023-02-19T20:54:17.892Z,463.00
2023-02-19T20:55:17.901Z,463.00
2023-02-19T20:56:17.916Z,463.00
2023-02-19T20:57:17.933Z,462.00
2023-02-19T20:58:19.451Z,461.00
2023-02-19T20:59:17.972Z,462.00
2023-02-19T21:00:17.966Z,460.00
2023-02-19T21:01:18.005Z,460.00
2023-02-19T21:02:18.081Z,460.00
2023-02-19T21:03:18.023Z,461.00
2023-02-19T21:04:18.035Z,461.00
2023-02-19T21:05:18.056Z,460.00
2023-02-19T21:06:18.065Z,457.00
2023-02-19T21:07:18.093Z,456.00
2023-02-19T21:08:18.089Z,456.00
2023-02-19T21:09:18.109Z,457.00
2023-02-19T21:10:18.405Z,457.00
2023-02-19T21:11:18.142Z,457.00
2023-02-19T21:12:18.170Z,459.00
2023-02-19T21:13:18.189Z,459.00
2023-02-19T21:14:18.207Z,459.00
2023-02-19T21:15:18.220Z,459.00
2023-02-19T21:16:18.281Z,460.00
2023-02-19T21:17:18.237Z,462.00
2023-02-19T21:18:18.261Z,460.00
2023-02-19T21:19:18.282Z,459.00
2023-02-19T21:20:18.314Z,459.00
2023-02-19T21:21:18.311Z,459.00
2023-02-19T21:22:18.330Z,459.00
2023-02-19T21:23:18.419Z,462.00
2023-02-19T21:24:18.378Z,466.00
2023-02-19T21:25:18.406Z,465.00
2023-02-19T21:26:18.428Z,464.00
2023-02-19T21:27:18.449Z,465.00
2023-02-19T21:28:18.489Z,466.00
2023-02-19T21:30:18.568Z,468.00
2023-02-19T21:46:18.881Z,458.00
